sensor_id;sensor_type;location;lat;lon;timestamp;P1;durP1;ratioP1;P2;durP2;ratioP2
15327;SDS011;7764;51.430;6.840;2023-05-31T00:01:29;16.07;;;10.90;;
15327;SDS011;7764;51.430;6.840;2023-05-31T00:03:57;19.50;;;12.43;;
15327;SDS011;7764;51.430;6.840;2023-05-31T00:06:24;16.80;;;11.60;;
15327;SDS011;7764;51.430;6.840;2023-05-31T00:08:51;21.30;;;12.47;;
15327;SDS011;7764;51.430;6.840;2023-05-31T00:11:18;15.37;;;11.20;;
15327;SDS011;7764;51.430;6.840;2023-05-31T00:13:45;18.73;;;12.00;;
15327;SDS011;7764;51.430;6.840;2023-05-31T00:16:12;16.73;;;11.90;;
15327;SDS011;7764;51.430;6.840;2023-05-31T00:18:39;18.50;;;12.20;;
15327;SDS011;7764;51.430;6.840;2023-05-31T00:21:07;16.60;;;11.60;;
15327;SDS011;7764;51.430;6.840;2023-05-31T00:23:34;17.03;;;11.50;;
15327;SDS011;7764;51.430;6.840;2023-05-31T00:26:01;18.73;;;12.03;;
15327;SDS011;7764;51.430;6.840;2023-05-31T00:28:28;16.97;;;12.17;;
15327;SDS011;7764;51.430;6.840;2023-05-31T00:30:54;17.63;;;11.80;;
15327;SDS011;7764;51.430;6.840;2023-05-31T00:33:21;16.60;;;11.97;;
15327;SDS011;7764;51.430;6.840;2023-05-31T00:35:48;17.60;;;11.77;;
15327;SDS011;7764;51.430;6.840;2023-05-31T00:38:16;14.90;;;11.77;;
15327;SDS011;7764;51.430;6.840;2023-05-31T00:40:44;17.43;;;12.10;;
15327;SDS011;7764;51.430;6.840;2023-05-31T00:43:12;15.03;;;11.63;;
15327;SDS011;7764;51.430;6.840;2023-05-31T00:45:39;17.63;;;12.63;;
15327;SDS011;7764;51.430;6.840;2023-05-31T00:48:05;16.63;;;12.20;;
15327;SDS011;7764;51.430;6.840;2023-05-31T00:50:33;16.07;;;12.53;;
15327;SDS011;7764;51.430;6.840;2023-05-31T00:53:00;18.30;;;13.13;;
15327;SDS011;7764;51.430;6.840;2023-05-31T00:55:31;16.83;;;12.27;;
15327;SDS011;7764;51.430;6.840;2023-05-31T00:57:58;16.63;;;12.30;;
15327;SDS011;7764;51.430;6.840;2023-05-31T01:00:25;16.77;;;12.67;;
15327;SDS011;7764;51.430;6.840;2023-05-31T01:02:53;18.27;;;13.13;;
15327;SDS011;7764;51.430;6.840;2023-05-31T01:05:20;17.37;;;12.77;;
15327;SDS011;7764;51.430;6.840;2023-05-31T01:07:47;16.63;;;12.53;;
15327;SDS011;7764;51.430;6.840;2023-05-31T01:10:14;16.63;;;12.70;;
15327;SDS011;7764;51.430;6.840;2023-05-31T01:12:48;16.73;;;12.20;;
15327;SDS011;7764;51.430;6.840;2023-05-31T01:15:24;16.40;;;12.53;;
15327;SDS011;7764;51.430;6.840;2023-05-31T01:17:57;16.40;;;12.03;;
15327;SDS011;7764;51.430;6.840;2023-05-31T01:20:34;16.60;;;12.23;;
15327;SDS011;7764;51.430;6.840;2023-05-31T01:23:08;16.13;;;12.20;;
15327;SDS011;7764;51.430;6.840;2023-05-31T01:25:46;18.03;;;12.63;;
15327;SDS011;7764;51.430;6.840;2023-05-31T01:28:25;19.90;;;12.67;;
15327;SDS011;7764;51.430;6.840;2023-05-31T01:30:57;17.57;;;13.33;;
15327;SDS011;7764;51.430;6.840;2023-05-31T01:33:28;17.47;;;12.47;;
15327;SDS011;7764;51.430;6.840;2023-05-31T01:35:55;17.67;;;12.50;;
15327;SDS011;7764;51.430;6.840;2023-05-31T01:38:22;16.70;;;12.87;;
15327;SDS011;7764;51.430;6.840;2023-05-31T01:40:49;16.17;;;12.53;;
15327;SDS011;7764;51.430;6.840;2023-05-31T01:43:16;18.07;;;13.07;;
15327;SDS011;7764;51.430;6.840;2023-05-31T01:45:44;18.17;;;13.57;;
15327;SDS011;7764;51.430;6.840;2023-05-31T01:48:12;17.40;;;12.77;;
15327;SDS011;7764;51.430;6.840;2023-05-31T01:50:39;18.87;;;13.83;;
15327;SDS011;7764;51.430;6.840;2023-05-31T01:53:08;17.03;;;13.20;;
15327;SDS011;7764;51.430;6.840;2023-05-31T01:55:36;16.83;;;13.17;;
15327;SDS011;7764;51.430;6.840;2023-05-31T01:58:02;16.50;;;12.40;;
15327;SDS011;7764;51.430;6.840;2023-05-31T02:00:30;17.23;;;13.37;;
15327;SDS011;7764;51.430;6.840;2023-05-31T02:02:59;19.77;;;12.90;;
15327;SDS011;7764;51.430;6.840;2023-05-31T02:05:27;20.40;;;13.87;;
15327;SDS011;7764;51.430;6.840;2023-05-31T02:07:54;20.23;;;14.00;;
15327;SDS011;7764;51.430;6.840;2023-05-31T02:10:21;15.27;;;12.70;;
15327;SDS011;7764;51.430;6.840;2023-05-31T02:12:48;18.20;;;13.10;;
15327;SDS011;7764;51.430;6.840;2023-05-31T02:15:15;18.00;;;14.17;;
15327;SDS011;7764;51.430;6.840;2023-05-31T02:17:44;16.90;;;12.90;;
15327;SDS011;7764;51.430;6.840;2023-05-31T02:20:17;16.20;;;12.53;;
15327;SDS011;7764;51.430;6.840;2023-05-31T02:22:44;17.80;;;13.23;;
15327;SDS011;7764;51.430;6.840;2023-05-31T02:25:12;18.93;;;13.37;;
15327;SDS011;7764;51.430;6.840;2023-05-31T02:27:40;18.00;;;13.10;;
15327;SDS011;7764;51.430;6.840;2023-05-31T02:30:08;17.00;;;12.97;;
15327;SDS011;7764;51.430;6.840;2023-05-31T02:32:35;16.00;;;12.83;;
15327;SDS011;7764;51.430;6.840;2023-05-31T02:35:03;18.47;;;13.53;;
15327;SDS011;7764;51.430;6.840;2023-05-31T02:37:32;17.83;;;13.10;;
15327;SDS011;7764;51.430;6.840;2023-05-31T02:39:59;21.57;;;13.43;;
15327;SDS011;7764;51.430;6.840;2023-05-31T02:42:26;17.90;;;12.40;;
15327;SDS011;7764;51.430;6.840;2023-05-31T02:44:53;20.10;;;13.40;;
15327;SDS011;7764;51.430;6.840;2023-05-31T02:47:20;17.47;;;13.40;;
15327;SDS011;7764;51.430;6.840;2023-05-31T02:49:46;18.33;;;13.87;;
15327;SDS011;7764;51.430;6.840;2023-05-31T02:52:13;19.07;;;14.33;;
15327;SDS011;7764;51.430;6.840;2023-05-31T02:54:41;19.33;;;13.87;;
15327;SDS011;7764;51.430;6.840;2023-05-31T02:57:08;16.97;;;13.20;;
15327;SDS011;7764;51.430;6.840;2023-05-31T02:59:35;18.73;;;13.17;;
15327;SDS011;7764;51.430;6.840;2023-05-31T03:02:02;18.43;;;13.93;;
15327;SDS011;7764;51.430;6.840;2023-05-31T03:04:30;18.00;;;13.23;;
15327;SDS011;7764;51.430;6.840;2023-05-31T03:06:56;20.20;;;13.83;;
15327;SDS011;7764;51.430;6.840;2023-05-31T03:09:23;18.40;;;13.93;;
15327;SDS011;7764;51.430;6.840;2023-05-31T03:11:51;18.67;;;13.93;;
15327;SDS011;7764;51.430;6.840;2023-05-31T03:14:18;18.67;;;13.70;;
15327;SDS011;7764;51.430;6.840;2023-05-31T03:16:45;19.80;;;14.40;;
15327;SDS011;7764;51.430;6.840;2023-05-31T03:19:13;18.53;;;13.53;;
15327;SDS011;7764;51.430;6.840;2023-05-31T03:21:39;18.57;;;13.27;;
15327;SDS011;7764;51.430;6.840;2023-05-31T03:24:06;17.47;;;13.87;;
15327;SDS011;7764;51.430;6.840;2023-05-31T03:26:33;19.43;;;14.00;;
15327;SDS011;7764;51.430;6.840;2023-05-31T03:29:02;19.57;;;14.20;;
15327;SDS011;7764;51.430;6.840;2023-05-31T03:31:29;17.77;;;13.73;;
15327;SDS011;7764;51.430;6.840;2023-05-31T03:33:56;20.83;;;14.37;;
15327;SDS011;7764;51.430;6.840;2023-05-31T03:36:22;18.83;;;13.57;;
15327;SDS011;7764;51.430;6.840;2023-05-31T03:38:49;19.10;;;13.10;;
15327;SDS011;7764;51.430;6.840;2023-05-31T03:41:16;18.53;;;13.27;;
15327;SDS011;7764;51.430;6.840;2023-05-31T03:43:43;19.17;;;13.73;;
15327;SDS011;7764;51.430;6.840;2023-05-31T03:46:11;19.57;;;13.93;;
15327;SDS011;7764;51.430;6.840;2023-05-31T03:48:38;17.37;;;13.70;;
15327;SDS011;7764;51.430;6.840;2023-05-31T03:51:05;21.27;;;13.80;;
15327;SDS011;7764;51.430;6.840;2023-05-31T03:53:32;19.83;;;14.23;;
15327;SDS011;7764;51.430;6.840;2023-05-31T03:55:58;19.50;;;13.20;;
15327;SDS011;7764;51.430;6.840;2023-05-31T03:58:25;19.47;;;13.27;;
15327;SDS011;7764;51.430;6.840;2023-05-31T04:00:52;17.97;;;13.47;;
15327;SDS011;7764;51.430;6.840;2023-05-31T04:03:21;19.97;;;13.67;;
15327;SDS011;7764;51.430;6.840;2023-05-31T04:05:48;19.27;;;14.10;;
15327;SDS011;7764;51.430;6.840;2023-05-31T04:08:14;18.17;;;13.43;;
15327;SDS011;7764;51.430;6.840;2023-05-31T04:10:42;19.60;;;13.63;;
15327;SDS011;7764;51.430;6.840;2023-05-31T04:13:09;17.73;;;12.23;;
15327;SDS011;7764;51.430;6.840;2023-05-31T04:15:36;16.70;;;11.90;;
15327;SDS011;7764;51.430;6.840;2023-05-31T04:18:03;18.17;;;11.93;;
15327;SDS011;7764;51.430;6.840;2023-05-31T04:20:31;16.77;;;11.00;;
15327;SDS011;7764;51.430;6.840;2023-05-31T04:22:58;14.25;;;11.38;;
15327;SDS011;7764;51.430;6.840;2023-05-31T04:25:25;17.38;;;11.63;;
15327;SDS011;7764;51.430;6.840;2023-05-31T04:27:52;17.15;;;11.60;;
15327;SDS011;7764;51.430;6.840;2023-05-31T04:30:19;15.57;;;11.60;;
15327;SDS011;7764;51.430;6.840;2023-05-31T04:32:48;17.02;;;10.35;;
15327;SDS011;7764;51.430;6.840;2023-05-31T04:35:16;14.27;;;9.95;;
15327;SDS011;7764;51.430;6.840;2023-05-31T04:37:44;13.63;;;9.77;;
15327;SDS011;7764;51.430;6.840;2023-05-31T04:40:12;14.88;;;10.18;;
15327;SDS011;7764;51.430;6.840;2023-05-31T04:42:39;14.70;;;10.40;;
15327;SDS011;7764;51.430;6.840;2023-05-31T04:45:07;12.45;;;10.23;;
15327;SDS011;7764;51.430;6.840;2023-05-31T04:47:35;15.00;;;9.95;;
15327;SDS011;7764;51.430;6.840;2023-05-31T04:50:02;12.77;;;9.80;;
15327;SDS011;7764;51.430;6.840;2023-05-31T04:52:29;15.05;;;9.73;;
15327;SDS011;7764;51.430;6.840;2023-05-31T04:54:59;12.95;;;9.90;;
15327;SDS011;7764;51.430;6.840;2023-05-31T04:57:28;12.02;;;9.70;;
15327;SDS011;7764;51.430;6.840;2023-05-31T04:59:55;13.88;;;9.60;;
15327;SDS011;7764;51.430;6.840;2023-05-31T05:02:22;11.85;;;9.63;;
15327;SDS011;7764;51.430;6.840;2023-05-31T05:04:49;13.98;;;10.18;;
15327;SDS011;7764;51.430;6.840;2023-05-31T05:07:16;12.85;;;9.02;;
15327;SDS011;7764;51.430;6.840;2023-05-31T05:09:43;11.75;;;9.75;;
15327;SDS011;7764;51.430;6.840;2023-05-31T05:12:11;11.70;;;9.65;;
15327;SDS011;7764;51.430;6.840;2023-05-31T05:14:38;12.45;;;9.98;;
15327;SDS011;7764;51.430;6.840;2023-05-31T05:17:05;16.20;;;10.70;;
15327;SDS011;7764;51.430;6.840;2023-05-31T05:19:32;15.02;;;9.80;;
15327;SDS011;7764;51.430;6.840;2023-05-31T05:21:59;14.00;;;9.43;;
15327;SDS011;7764;51.430;6.840;2023-05-31T05:24:26;13.32;;;9.50;;
15327;SDS011;7764;51.430;6.840;2023-05-31T05:26:52;12.32;;;9.90;;
15327;SDS011;7764;51.430;6.840;2023-05-31T05:29:21;12.32;;;9.50;;
15327;SDS011;7764;51.430;6.840;2023-05-31T05:31:47;12.85;;;9.40;;
15327;SDS011;7764;51.430;6.840;2023-05-31T05:34:14;12.43;;;9.60;;
15327;SDS011;7764;51.430;6.840;2023-05-31T05:36:41;14.40;;;10.23;;
15327;SDS011;7764;51.430;6.840;2023-05-31T05:39:08;13.63;;;10.50;;
15327;SDS011;7764;51.430;6.840;2023-05-31T05:41:36;16.30;;;10.25;;
15327;SDS011;7764;51.430;6.840;2023-05-31T05:44:03;14.32;;;10.57;;
15327;SDS011;7764;51.430;6.840;2023-05-31T05:46:31;14.80;;;10.15;;
15327;SDS011;7764;51.430;6.840;2023-05-31T05:48:58;14.45;;;10.93;;
15327;SDS011;7764;51.430;6.840;2023-05-31T05:51:25;13.32;;;9.85;;
15327;SDS011;7764;51.430;6.840;2023-05-31T05:53:51;11.82;;;9.50;;
15327;SDS011;7764;51.430;6.840;2023-05-31T05:56:18;11.20;;;9.18;;
15327;SDS011;7764;51.430;6.840;2023-05-31T05:58:45;12.50;;;9.65;;
15327;SDS011;7764;51.430;6.840;2023-05-31T06:01:13;14.80;;;9.25;;
15327;SDS011;7764;51.430;6.840;2023-05-31T06:03:46;16.75;;;9.18;;
15327;SDS011;7764;51.430;6.840;2023-05-31T06:06:13;12.23;;;9.73;;
15327;SDS011;7764;51.430;6.840;2023-05-31T06:08:41;12.32;;;9.85;;
15327;SDS011;7764;51.430;6.840;2023-05-31T06:11:08;11.57;;;8.75;;
15327;SDS011;7764;51.430;6.840;2023-05-31T06:13:35;15.00;;;9.52;;
15327;SDS011;7764;51.430;6.840;2023-05-31T06:16:02;13.25;;;9.48;;
15327;SDS011;7764;51.430;6.840;2023-05-31T06:18:29;12.15;;;9.40;;
15327;SDS011;7764;51.430;6.840;2023-05-31T06:20:58;13.10;;;9.75;;
15327;SDS011;7764;51.430;6.840;2023-05-31T06:23:25;14.30;;;9.40;;
15327;SDS011;7764;51.430;6.840;2023-05-31T06:25:51;12.15;;;9.48;;
15327;SDS011;7764;51.430;6.840;2023-05-31T06:28:18;15.75;;;9.23;;
15327;SDS011;7764;51.430;6.840;2023-05-31T06:30:45;13.32;;;9.23;;
15327;SDS011;7764;51.430;6.840;2023-05-31T06:33:12;12.90;;;9.13;;
15327;SDS011;7764;51.430;6.840;2023-05-31T06:35:39;14.25;;;8.65;;
15327;SDS011;7764;51.430;6.840;2023-05-31T06:38:09;12.45;;;8.68;;
15327;SDS011;7764;51.430;6.840;2023-05-31T06:40:40;10.75;;;8.13;;
15327;SDS011;7764;51.430;6.840;2023-05-31T06:43:08;13.63;;;8.18;;
15327;SDS011;7764;51.430;6.840;2023-05-31T06:45:35;18.10;;;9.25;;
15327;SDS011;7764;51.430;6.840;2023-05-31T06:48:03;12.05;;;8.45;;
15327;SDS011;7764;51.430;6.840;2023-05-31T06:50:30;10.77;;;8.63;;
15327;SDS011;7764;51.430;6.840;2023-05-31T06:52:57;10.93;;;7.68;;
15327;SDS011;7764;51.430;6.840;2023-05-31T06:55:25;15.68;;;8.85;;
15327;SDS011;7764;51.430;6.840;2023-05-31T06:57:52;11.73;;;8.10;;
15327;SDS011;7764;51.430;6.840;2023-05-31T07:00:19;11.93;;;8.43;;
15327;SDS011;7764;51.430;6.840;2023-05-31T07:02:46;12.50;;;8.05;;
15327;SDS011;7764;51.430;6.840;2023-05-31T07:05:13;12.60;;;8.88;;
15327;SDS011;7764;51.430;6.840;2023-05-31T07:07:40;12.52;;;8.68;;
15327;SDS011;7764;51.430;6.840;2023-05-31T07:10:07;13.88;;;8.23;;
15327;SDS011;7764;51.430;6.840;2023-05-31T07:12:36;12.68;;;8.30;;
15327;SDS011;7764;51.430;6.840;2023-05-31T07:15:03;11.32;;;7.80;;
15327;SDS011;7764;51.430;6.840;2023-05-31T07:17:30;11.38;;;8.45;;
15327;SDS011;7764;51.430;6.840;2023-05-31T07:19:57;13.43;;;10.68;;
15327;SDS011;7764;51.430;6.840;2023-05-31T07:22:23;14.32;;;8.70;;
15327;SDS011;7764;51.430;6.840;2023-05-31T07:24:50;11.70;;;7.90;;
15327;SDS011;7764;51.430;6.840;2023-05-31T07:27:18;12.13;;;8.90;;
15327;SDS011;7764;51.430;6.840;2023-05-31T07:29:46;15.18;;;8.23;;
15327;SDS011;7764;51.430;6.840;2023-05-31T07:32:13;14.07;;;8.10;;
15327;SDS011;7764;51.430;6.840;2023-05-31T07:34:40;15.68;;;8.40;;
15327;SDS011;7764;51.430;6.840;2023-05-31T07:37:07;12.57;;;8.30;;
15327;SDS011;7764;51.430;6.840;2023-05-31T07:39:34;10.63;;;7.70;;
15327;SDS011;7764;51.430;6.840;2023-05-31T07:42:01;11.85;;;7.75;;
15327;SDS011;7764;51.430;6.840;2023-05-31T07:44:28;11.02;;;7.82;;
15327;SDS011;7764;51.430;6.840;2023-05-31T07:46:56;11.40;;;7.97;;
15327;SDS011;7764;51.430;6.840;2023-05-31T07:49:23;14.55;;;8.07;;
15327;SDS011;7764;51.430;6.840;2023-05-31T07:51:50;12.48;;;8.18;;
15327;SDS011;7764;51.430;6.840;2023-05-31T07:54:17;12.40;;;8.10;;
15327;SDS011;7764;51.430;6.840;2023-05-31T07:56:44;11.88;;;7.93;;
15327;SDS011;7764;51.430;6.840;2023-05-31T07:59:11;14.50;;;8.27;;
15327;SDS011;7764;51.430;6.840;2023-05-31T08:01:38;15.20;;;8.38;;
15327;SDS011;7764;51.430;6.840;2023-05-31T08:04:07;10.13;;;7.95;;
15327;SDS011;7764;51.430;6.840;2023-05-31T08:06:34;14.95;;;7.75;;
15327;SDS011;7764;51.430;6.840;2023-05-31T08:09:02;13.27;;;8.20;;
15327;SDS011;7764;51.430;6.840;2023-05-31T08:11:31;14.45;;;9.40;;
15327;SDS011;7764;51.430;6.840;2023-05-31T08:14:00;13.57;;;8.60;;
15327;SDS011;7764;51.430;6.840;2023-05-31T08:16:27;15.82;;;9.05;;
15327;SDS011;7764;51.430;6.840;2023-05-31T08:18:54;13.23;;;8.77;;
15327;SDS011;7764;51.430;6.840;2023-05-31T08:21:23;12.75;;;8.20;;
15327;SDS011;7764;51.430;6.840;2023-05-31T08:23:50;13.95;;;7.63;;
15327;SDS011;7764;51.430;6.840;2023-05-31T08:26:17;12.10;;;7.90;;
15327;SDS011;7764;51.430;6.840;2023-05-31T08:28:43;13.88;;;8.55;;
15327;SDS011;7764;51.430;6.840;2023-05-31T08:31:11;13.80;;;8.32;;
15327;SDS011;7764;51.430;6.840;2023-05-31T08:33:37;13.63;;;8.68;;
15327;SDS011;7764;51.430;6.840;2023-05-31T08:36:17;11.10;;;7.55;;
15327;SDS011;7764;51.430;6.840;2023-05-31T08:38:46;12.70;;;7.75;;
15327;SDS011;7764;51.430;6.840;2023-05-31T08:41:12;11.73;;;7.45;;
15327;SDS011;7764;51.430;6.840;2023-05-31T08:43:39;12.75;;;7.38;;
15327;SDS011;7764;51.430;6.840;2023-05-31T08:46:07;16.67;;;8.30;;
15327;SDS011;7764;51.430;6.840;2023-05-31T08:48:35;13.52;;;7.43;;
15327;SDS011;7764;51.430;6.840;2023-05-31T08:51:07;12.15;;;8.05;;
15327;SDS011;7764;51.430;6.840;2023-05-31T08:53:35;11.65;;;7.32;;
15327;SDS011;7764;51.430;6.840;2023-05-31T08:56:04;14.43;;;6.68;;
15327;SDS011;7764;51.430;6.840;2023-05-31T08:58:32;14.18;;;7.32;;
15327;SDS011;7764;51.430;6.840;2023-05-31T09:01:00;14.52;;;7.05;;
15327;SDS011;7764;51.430;6.840;2023-05-31T09:03:28;11.70;;;6.53;;
15327;SDS011;7764;51.430;6.840;2023-05-31T09:05:55;11.13;;;5.90;;
15327;SDS011;7764;51.430;6.840;2023-05-31T09:08:22;13.00;;;5.72;;
15327;SDS011;7764;51.430;6.840;2023-05-31T09:10:49;13.82;;;5.75;;
15327;SDS011;7764;51.430;6.840;2023-05-31T09:13:17;11.10;;;6.68;;
15327;SDS011;7764;51.430;6.840;2023-05-31T09:15:46;10.65;;;6.32;;
15327;SDS011;7764;51.430;6.840;2023-05-31T09:18:14;12.55;;;6.25;;
15327;SDS011;7764;51.430;6.840;2023-05-31T09:20:43;12.25;;;5.93;;
15327;SDS011;7764;51.430;6.840;2023-05-31T09:23:12;9.38;;;5.07;;
15327;SDS011;7764;51.430;6.840;2023-05-31T09:25:42;12.07;;;5.65;;
15327;SDS011;7764;51.430;6.840;2023-05-31T09:28:10;11.93;;;5.63;;
15327;SDS011;7764;51.430;6.840;2023-05-31T09:30:38;13.55;;;6.20;;
15327;SDS011;7764;51.430;6.840;2023-05-31T09:33:05;10.88;;;5.57;;
15327;SDS011;7764;51.430;6.840;2023-05-31T09:35:33;8.43;;;4.72;;
15327;SDS011;7764;51.430;6.840;2023-05-31T09:38:03;8.20;;;4.53;;
15327;SDS011;7764;51.430;6.840;2023-05-31T09:40:31;7.88;;;4.90;;
15327;SDS011;7764;51.430;6.840;2023-05-31T09:42:59;10.45;;;5.15;;
15327;SDS011;7764;51.430;6.840;2023-05-31T09:45:26;13.43;;;4.82;;
15327;SDS011;7764;51.430;6.840;2023-05-31T09:47:55;11.00;;;4.80;;
15327;SDS011;7764;51.430;6.840;2023-05-31T09:50:22;11.73;;;5.53;;
15327;SDS011;7764;51.430;6.840;2023-05-31T09:52:56;13.88;;;5.45;;
15327;SDS011;7764;51.430;6.840;2023-05-31T09:55:23;9.68;;;4.45;;
15327;SDS011;7764;51.430;6.840;2023-05-31T09:58:04;8.70;;;4.05;;
15327;SDS011;7764;51.430;6.840;2023-05-31T10:00:31;12.30;;;4.28;;
15327;SDS011;7764;51.430;6.840;2023-05-31T10:02:59;11.90;;;4.60;;
15327;SDS011;7764;51.430;6.840;2023-05-31T10:05:29;10.63;;;4.10;;
15327;SDS011;7764;51.430;6.840;2023-05-31T10:07:56;9.60;;;3.70;;
15327;SDS011;7764;51.430;6.840;2023-05-31T10:10:22;11.10;;;4.65;;
15327;SDS011;7764;51.430;6.840;2023-05-31T10:12:50;12.48;;;4.35;;
15327;SDS011;7764;51.430;6.840;2023-05-31T10:15:19;9.55;;;3.88;;
15327;SDS011;7764;51.430;6.840;2023-05-31T10:17:50;10.80;;;3.88;;
15327;SDS011;7764;51.430;6.840;2023-05-31T10:20:24;13.25;;;4.03;;
15327;SDS011;7764;51.430;6.840;2023-05-31T10:22:54;7.88;;;3.38;;
15327;SDS011;7764;51.430;6.840;2023-05-31T10:25:28;21.90;;;4.30;;
15327;SDS011;7764;51.430;6.840;2023-05-31T10:28:00;9.48;;;3.47;;
15327;SDS011;7764;51.430;6.840;2023-05-31T10:30:33;7.53;;;3.50;;
15327;SDS011;7764;51.430;6.840;2023-05-31T10:33:03;10.63;;;3.60;;
15327;SDS011;7764;51.430;6.840;2023-05-31T10:35:34;8.43;;;3.83;;
15327;SDS011;7764;51.430;6.840;2023-05-31T10:38:01;7.43;;;3.60;;
15327;SDS011;7764;51.430;6.840;2023-05-31T10:40:30;8.88;;;3.22;;
15327;SDS011;7764;51.430;6.840;2023-05-31T10:43:05;10.10;;;3.33;;
15327;SDS011;7764;51.430;6.840;2023-05-31T10:45:38;8.10;;;3.22;;
15327;SDS011;7764;51.430;6.840;2023-05-31T10:48:10;9.25;;;3.30;;
15327;SDS011;7764;51.430;6.840;2023-05-31T10:50:52;4.57;;;2.80;;
15327;SDS011;7764;51.430;6.840;2023-05-31T10:53:20;7.70;;;3.10;;
15327;SDS011;7764;51.430;6.840;2023-05-31T10:55:47;9.43;;;3.60;;
15327;SDS011;7764;51.430;6.840;2023-05-31T10:58:24;8.02;;;3.40;;
15327;SDS011;7764;51.430;6.840;2023-05-31T11:00:53;8.38;;;3.78;;
15327;SDS011;7764;51.430;6.840;2023-05-31T11:03:21;7.35;;;3.20;;
15327;SDS011;7764;51.430;6.840;2023-05-31T11:05:56;8.57;;;3.55;;
15327;SDS011;7764;51.430;6.840;2023-05-31T11:08:24;8.90;;;3.60;;
15327;SDS011;7764;51.430;6.840;2023-05-31T11:10:51;7.93;;;3.92;;
15327;SDS011;7764;51.430;6.840;2023-05-31T11:13:19;7.32;;;3.35;;
15327;SDS011;7764;51.430;6.840;2023-05-31T11:15:46;7.88;;;3.50;;
15327;SDS011;7764;51.430;6.840;2023-05-31T11:18:14;6.93;;;3.20;;
15327;SDS011;7764;51.430;6.840;2023-05-31T11:20:47;8.55;;;3.38;;
15327;SDS011;7764;51.430;6.840;2023-05-31T11:23:25;11.30;;;3.90;;
15327;SDS011;7764;51.430;6.840;2023-05-31T11:26:09;8.55;;;3.53;;
15327;SDS011;7764;51.430;6.840;2023-05-31T11:34:28;6.82;;;3.50;;
15327;SDS011;7764;51.430;6.840;2023-05-31T11:36:56;6.63;;;3.20;;
15327;SDS011;7764;51.430;6.840;2023-05-31T11:39:26;8.60;;;3.30;;
15327;SDS011;7764;51.430;6.840;2023-05-31T11:41:54;6.65;;;3.30;;
15327;SDS011;7764;51.430;6.840;2023-05-31T11:44:25;7.38;;;3.10;;
15327;SDS011;7764;51.430;6.840;2023-05-31T11:46:55;7.10;;;2.97;;
15327;SDS011;7764;51.430;6.840;2023-05-31T11:49:27;13.25;;;3.38;;
15327;SDS011;7764;51.430;6.840;2023-05-31T11:51:55;8.05;;;2.97;;
15327;SDS011;7764;51.430;6.840;2023-05-31T11:54:27;7.60;;;3.28;;
15327;SDS011;7764;51.430;6.840;2023-05-31T11:57:04;11.73;;;3.67;;
15327;SDS011;7764;51.430;6.840;2023-05-31T11:59:32;8.90;;;3.60;;
15327;SDS011;7764;51.430;6.840;2023-05-31T12:02:00;57.28;;;6.32;;
15327;SDS011;7764;51.430;6.840;2023-05-31T12:04:32;5.68;;;3.38;;
15327;SDS011;7764;51.430;6.840;2023-05-31T12:07:02;9.63;;;3.10;;
15327;SDS011;7764;51.430;6.840;2023-05-31T12:09:31;6.60;;;3.00;;
15327;SDS011;7764;51.430;6.840;2023-05-31T12:11:59;8.45;;;3.00;;
15327;SDS011;7764;51.430;6.840;2023-05-31T12:14:28;7.13;;;3.10;;
15327;SDS011;7764;51.430;6.840;2023-05-31T12:16:55;9.50;;;3.20;;
15327;SDS011;7764;51.430;6.840;2023-05-31T12:19:22;8.43;;;3.13;;
15327;SDS011;7764;51.430;6.840;2023-05-31T12:21:49;6.05;;;2.90;;
15327;SDS011;7764;51.430;6.840;2023-05-31T12:24:16;4.82;;;2.60;;
15327;SDS011;7764;51.430;6.840;2023-05-31T12:26:45;6.28;;;3.17;;
15327;SDS011;7764;51.430;6.840;2023-05-31T12:29:14;7.60;;;3.30;;
15327;SDS011;7764;51.430;6.840;2023-05-31T12:31:41;10.23;;;2.85;;
15327;SDS011;7764;51.430;6.840;2023-05-31T12:34:09;7.38;;;3.25;;
15327;SDS011;7764;51.430;6.840;2023-05-31T12:36:37;6.03;;;3.05;;
15327;SDS011;7764;51.430;6.840;2023-05-31T12:39:06;7.07;;;3.03;;
15327;SDS011;7764;51.430;6.840;2023-05-31T12:41:35;6.20;;;2.90;;
15327;SDS011;7764;51.430;6.840;2023-05-31T12:44:03;6.53;;;2.80;;
15327;SDS011;7764;51.430;6.840;2023-05-31T12:46:36;7.75;;;2.83;;
15327;SDS011;7764;51.430;6.840;2023-05-31T12:49:11;11.15;;;3.33;;
15327;SDS011;7764;51.430;6.840;2023-05-31T12:51:39;7.20;;;3.10;;
15327;SDS011;7764;51.430;6.840;2023-05-31T12:54:09;6.63;;;3.00;;
15327;SDS011;7764;51.430;6.840;2023-05-31T12:56:37;8.07;;;3.13;;
15327;SDS011;7764;51.430;6.840;2023-05-31T12:59:05;7.28;;;2.92;;
15327;SDS011;7764;51.430;6.840;2023-05-31T13:01:33;7.60;;;3.30;;
15327;SDS011;7764;51.430;6.840;2023-05-31T13:04:00;7.50;;;2.92;;
15327;SDS011;7764;51.430;6.840;2023-05-31T13:06:27;7.03;;;2.67;;
15327;SDS011;7764;51.430;6.840;2023-05-31T13:08:54;6.60;;;2.90;;
15327;SDS011;7764;51.430;6.840;2023-05-31T13:11:21;6.47;;;2.67;;
15327;SDS011;7764;51.430;6.840;2023-05-31T13:13:48;6.22;;;2.80;;
15327;SDS011;7764;51.430;6.840;2023-05-31T13:16:16;7.80;;;2.70;;
15327;SDS011;7764;51.430;6.840;2023-05-31T13:18:43;8.43;;;3.40;;
15327;SDS011;7764;51.430;6.840;2023-05-31T13:21:10;6.00;;;2.50;;
15327;SDS011;7764;51.430;6.840;2023-05-31T13:23:36;8.45;;;3.10;;
15327;SDS011;7764;51.430;6.840;2023-05-31T13:26:03;9.68;;;3.03;;
15327;SDS011;7764;51.430;6.840;2023-05-31T13:28:30;7.15;;;2.95;;
15327;SDS011;7764;51.430;6.840;2023-05-31T13:30:57;8.40;;;2.80;;
15327;SDS011;7764;51.430;6.840;2023-05-31T13:33:25;7.00;;;2.78;;
15327;SDS011;7764;51.430;6.840;2023-05-31T13:35:53;6.05;;;2.70;;
15327;SDS011;7764;51.430;6.840;2023-05-31T13:38:21;6.68;;;2.78;;
15327;SDS011;7764;51.430;6.840;2023-05-31T13:40:48;7.88;;;3.08;;
15327;SDS011;7764;51.430;6.840;2023-05-31T13:43:16;6.20;;;2.60;;
15327;SDS011;7764;51.430;6.840;2023-05-31T13:45:43;8.32;;;3.10;;
15327;SDS011;7764;51.430;6.840;2023-05-31T13:48:10;6.38;;;2.72;;
15327;SDS011;7764;51.430;6.840;2023-05-31T13:50:39;9.75;;;3.40;;
15327;SDS011;7764;51.430;6.840;2023-05-31T13:53:06;6.35;;;2.67;;
15327;SDS011;7764;51.430;6.840;2023-05-31T13:55:34;7.75;;;3.15;;
15327;SDS011;7764;51.430;6.840;2023-05-31T13:58:01;6.85;;;3.15;;
15327;SDS011;7764;51.430;6.840;2023-05-31T14:00:29;6.25;;;3.17;;
15327;SDS011;7764;51.430;6.840;2023-05-31T14:02:56;5.82;;;2.90;;
15327;SDS011;7764;51.430;6.840;2023-05-31T14:05:23;6.25;;;3.00;;
15327;SDS011;7764;51.430;6.840;2023-05-31T14:07:53;9.20;;;3.30;;
15327;SDS011;7764;51.430;6.840;2023-05-31T14:10:19;4.68;;;2.53;;
15327;SDS011;7764;51.430;6.840;2023-05-31T14:12:47;15.85;;;3.65;;
15327;SDS011;7764;51.430;6.840;2023-05-31T14:15:13;7.03;;;3.10;;
15327;SDS011;7764;51.430;6.840;2023-05-31T14:17:41;7.63;;;3.00;;
15327;SDS011;7764;51.430;6.840;2023-05-31T14:20:08;7.35;;;3.00;;
15327;SDS011;7764;51.430;6.840;2023-05-31T14:22:36;6.32;;;2.90;;
15327;SDS011;7764;51.430;6.840;2023-05-31T14:25:05;6.47;;;2.97;;
15327;SDS011;7764;51.430;6.840;2023-05-31T14:27:32;6.07;;;2.75;;
15327;SDS011;7764;51.430;6.840;2023-05-31T14:30:00;6.28;;;2.75;;
15327;SDS011;7764;51.430;6.840;2023-05-31T14:32:27;6.95;;;2.80;;
15327;SDS011;7764;51.430;6.840;2023-05-31T14:34:54;6.95;;;3.05;;
15327;SDS011;7764;51.430;6.840;2023-05-31T14:37:21;8.13;;;2.97;;
15327;SDS011;7764;51.430;6.840;2023-05-31T14:39:48;8.05;;;3.20;;
15327;SDS011;7764;51.430;6.840;2023-05-31T14:42:16;7.97;;;3.20;;
15327;SDS011;7764;51.430;6.840;2023-05-31T14:44:43;8.02;;;3.30;;
15327;SDS011;7764;51.430;6.840;2023-05-31T14:47:10;6.82;;;3.40;;
15327;SDS011;7764;51.430;6.840;2023-05-31T14:49:37;8.13;;;3.00;;
15327;SDS011;7764;51.430;6.840;2023-05-31T14:52:04;6.40;;;2.95;;
15327;SDS011;7764;51.430;6.840;2023-05-31T14:54:32;5.05;;;2.63;;
15327;SDS011;7764;51.430;6.840;2023-05-31T14:56:59;4.47;;;2.72;;
15327;SDS011;7764;51.430;6.840;2023-05-31T14:59:29;12.63;;;3.20;;